createdAt,value
2023-05-26T00:00:38.942Z,21.80
2023-05-26T00:03:24.504Z,24.98
2023-05-26T00:05:55.250Z,24.17
2023-05-26T00:08:24.319Z,25.67
2023-05-26T00:10:55.054Z,23.70
2023-05-26T00:13:23.736Z,23.33
2023-05-26T00:15:52.206Z,24.17
2023-05-26T00:18:21.043Z,25.45
2023-05-26T00:20:49.489Z,24.33
2023-05-26T00:23:18.176Z,25.00
2023-05-26T00:25:46.729Z,23.60
2023-05-26T00:28:17.703Z,22.85
2023-05-26T00:30:46.013Z,22.42
2023-05-26T00:33:15.203Z,24.38
2023-05-26T00:35:43.743Z,22.98
2023-05-26T00:38:12.974Z,23.08
2023-05-26T00:40:42.310Z,22.23
2023-05-26T00:43:11.459Z,24.90
2023-05-26T00:45:41.325Z,24.80
2023-05-26T00:48:09.895Z,22.90
2023-05-26T00:50:38.257Z,23.70
2023-05-26T00:53:07.153Z,23.25
2023-05-26T00:55:36.078Z,22.98
2023-05-26T00:58:05.321Z,22.30
2023-05-26T01:00:34.170Z,23.65
2023-05-26T01:03:06.602Z,22.25
2023-05-26T01:05:35.030Z,23.90
2023-05-26T01:08:03.849Z,23.80
2023-05-26T01:10:32.876Z,21.20
2023-05-26T01:13:04.605Z,24.10
2023-05-26T01:15:38.192Z,24.27
2023-05-26T01:18:14.682Z,23.35
2023-05-26T01:20:47.248Z,23.88
2023-05-26T01:23:24.216Z,23.63
2023-05-26T01:26:11.776Z,25.02
2023-05-26T01:28:43.872Z,24.23
2023-05-26T01:31:12.248Z,21.73
2023-05-26T01:33:40.902Z,22.75
2023-05-26T01:36:09.512Z,24.27
2023-05-26T01:38:38.249Z,25.20
2023-05-26T01:41:13.785Z,24.33
2023-05-26T01:43:46.924Z,24.75
2023-05-26T01:46:24.661Z,23.08
2023-05-26T01:48:54.093Z,24.42
2023-05-26T01:51:23.830Z,25.48
2023-05-26T01:53:55.779Z,26.05
2023-05-26T01:56:24.404Z,25.25
2023-05-26T01:58:55.352Z,24.85
2023-05-26T02:01:27.639Z,25.15
2023-05-26T02:03:57.279Z,26.52
2023-05-26T02:06:25.898Z,24.50
2023-05-26T02:08:54.952Z,26.67
2023-05-26T02:11:23.346Z,26.95
2023-05-26T02:13:52.031Z,25.17
2023-05-26T02:16:23.146Z,24.50
2023-05-26T02:18:51.851Z,26.52
2023-05-26T02:21:20.648Z,27.15
2023-05-26T02:23:49.218Z,26.25
2023-05-26T02:26:17.571Z,26.90
2023-05-26T02:28:46.126Z,27.48
2023-05-26T02:31:15.219Z,27.50
2023-05-26T02:33:45.496Z,27.33
2023-05-26T02:36:15.178Z,27.58
2023-05-26T02:38:43.902Z,28.52
2023-05-26T02:41:12.206Z,28.65
2023-05-26T02:43:41.488Z,28.02
2023-05-26T02:46:09.869Z,28.60
2023-05-26T02:48:38.520Z,27.58
2023-05-26T02:51:08.688Z,29.42
2023-05-26T02:53:37.592Z,28.27
2023-05-26T02:56:07.834Z,26.73
2023-05-26T02:58:36.715Z,28.50
2023-05-26T03:01:05.663Z,27.80
2023-05-26T03:03:35.719Z,26.02
2023-05-26T03:06:04.930Z,26.15
2023-05-26T03:08:35.470Z,28.10
2023-05-26T03:11:10.991Z,28.45
2023-05-26T03:13:40.421Z,27.55
2023-05-26T03:16:09.064Z,29.25
2023-05-26T03:18:37.868Z,27.02
2023-05-26T03:21:47.482Z,25.30
2023-05-26T03:23:58.003Z,25.48
2023-05-26T03:26:26.543Z,25.08
2023-05-26T03:28:55.156Z,24.70
2023-05-26T03:31:24.720Z,26.73
2023-05-26T03:33:53.239Z,25.88
2023-05-26T03:36:22.035Z,24.95
2023-05-26T03:38:50.484Z,24.90
2023-05-26T03:41:20.028Z,22.85
2023-05-26T03:43:48.627Z,23.30
2023-05-26T03:46:17.162Z,24.88
2023-05-26T03:48:46.238Z,26.13
2023-05-26T03:51:14.556Z,24.02
2023-05-26T03:53:44.029Z,24.30
2023-05-26T03:56:12.386Z,24.80
2023-05-26T03:58:42.611Z,24.35
2023-05-26T04:01:11.020Z,26.20
2023-05-26T04:03:41.772Z,24.98
2023-05-26T04:06:11.634Z,24.13
2023-05-26T04:08:40.561Z,23.95
2023-05-26T04:11:08.756Z,24.70
2023-05-26T04:13:40.218Z,25.48
2023-05-26T04:16:10.132Z,23.98
2023-05-26T04:18:41.464Z,23.10
2023-05-26T04:21:09.912Z,22.30
2023-05-26T04:23:39.198Z,24.30
2023-05-26T04:26:08.265Z,21.30
2023-05-26T04:28:37.328Z,23.45
2023-05-26T04:31:05.887Z,22.13
2023-05-26T04:33:40.556Z,21.20
2023-05-26T04:36:10.383Z,22.75
2023-05-26T04:38:42.649Z,21.70
2023-05-26T04:41:11.031Z,23.55
2023-05-26T04:43:42.226Z,23.60
2023-05-26T04:46:12.551Z,21.52
2023-05-26T04:48:43.121Z,21.20
2023-05-26T04:51:11.580Z,21.13
2023-05-26T04:53:40.296Z,22.23
2023-05-26T04:56:08.890Z,24.38
2023-05-26T04:58:38.708Z,20.02
2023-05-26T05:01:08.643Z,22.40
2023-05-26T05:06:08.520Z,21.02
2023-05-26T05:08:37.957Z,20.23
2023-05-26T05:11:06.657Z,18.35
2023-05-26T05:13:35.397Z,17.52
2023-05-26T05:16:04.953Z,17.08
2023-05-26T05:18:33.925Z,19.00
2023-05-26T05:21:02.325Z,18.88
2023-05-26T05:23:35.659Z,17.50
2023-05-26T05:26:04.322Z,15.30
2023-05-26T05:28:33.060Z,15.52
2023-05-26T05:31:01.476Z,15.45
2023-05-26T05:33:30.368Z,14.68
2023-05-26T05:35:58.883Z,13.13
2023-05-26T05:38:27.608Z,13.43
2023-05-26T05:40:57.503Z,11.85
2023-05-26T05:43:26.143Z,13.35
2023-05-26T05:45:54.752Z,14.40
2023-05-26T05:48:23.366Z,11.82
2023-05-26T05:50:51.839Z,10.50
2023-05-26T05:53:20.612Z,11.45
2023-05-26T05:55:48.972Z,10.38
2023-05-26T05:58:19.653Z,10.13
2023-05-26T06:00:48.211Z,11.43
2023-05-26T06:03:17.118Z,10.15
2023-05-26T06:05:45.943Z,10.35
2023-05-26T06:08:14.639Z,10.07
2023-05-26T06:10:43.024Z,9.95
2023-05-26T06:13:11.736Z,11.07
2023-05-26T06:15:41.323Z,9.82
2023-05-26T06:18:09.966Z,10.05
2023-05-26T06:20:38.508Z,10.70
2023-05-26T06:23:08.410Z,9.80
2023-05-26T06:25:39.261Z,10.05
2023-05-26T06:28:07.993Z,9.70
2023-05-26T06:30:36.311Z,9.63
2023-05-26T06:33:06.607Z,10.27
2023-05-26T06:35:34.874Z,9.77
2023-05-26T06:38:03.623Z,9.77
2023-05-26T06:40:32.216Z,8.80
2023-05-26T06:43:00.856Z,8.85
2023-05-26T06:45:29.041Z,8.30
2023-05-26T06:47:57.649Z,9.50
2023-05-26T06:50:27.733Z,10.02
2023-05-26T06:52:56.348Z,9.63
2023-05-26T06:55:24.652Z,9.63
2023-05-26T06:57:53.272Z,9.75
2023-05-26T07:00:23.649Z,8.15
2023-05-26T07:02:52.333Z,8.65
2023-05-26T07:05:21.167Z,7.88
2023-05-26T07:07:51.442Z,7.75
2023-05-26T07:10:19.649Z,7.63
2023-05-26T07:12:48.466Z,7.72
2023-05-26T07:15:16.868Z,8.57
2023-05-26T07:17:45.680Z,8.32
2023-05-26T07:20:14.525Z,7.25
2023-05-26T07:22:44.033Z,7.67
2023-05-26T07:25:13.986Z,6.50
2023-05-26T07:27:42.649Z,7.70
2023-05-26T07:30:11.913Z,7.57
2023-05-26T07:32:40.660Z,7.93
2023-05-26T07:35:09.884Z,8.45
2023-05-26T07:37:38.638Z,8.57
2023-05-26T07:40:08.587Z,7.57
2023-05-26T07:42:39.122Z,7.25
2023-05-26T07:45:11.309Z,9.05
2023-05-26T07:47:40.353Z,7.30
2023-05-26T07:50:09.872Z,6.72
2023-05-26T07:52:38.417Z,8.32
2023-05-26T07:55:07.058Z,7.32
2023-05-26T07:57:35.809Z,7.60
2023-05-26T08:00:06.320Z,7.22
2023-05-26T08:02:36.776Z,7.75
2023-05-26T08:05:05.679Z,7.65
2023-05-26T08:07:34.730Z,7.32
2023-05-26T08:10:03.972Z,7.38
2023-05-26T08:12:32.615Z,7.80
2023-05-26T08:15:01.100Z,6.13
2023-05-26T08:17:31.056Z,7.40
2023-05-26T08:19:59.889Z,7.35
2023-05-26T08:22:28.549Z,6.07
2023-05-26T08:24:58.371Z,7.40
2023-05-26T08:27:27.245Z,7.40
2023-05-26T08:29:55.707Z,6.25
2023-05-26T08:32:25.261Z,7.60
2023-05-26T08:34:55.185Z,6.97
2023-05-26T08:37:23.706Z,7.72
2023-05-26T08:39:52.023Z,7.50
2023-05-26T08:42:27.699Z,6.75
2023-05-26T08:45:02.438Z,7.30
2023-05-26T08:47:33.329Z,6.47
2023-05-26T08:50:05.770Z,6.15
2023-05-26T08:52:34.793Z,6.95
2023-05-26T08:55:03.371Z,6.60
2023-05-26T08:57:32.364Z,6.37
2023-05-26T09:00:01.911Z,8.55
2023-05-26T09:02:31.233Z,6.50
2023-05-26T09:05:00.346Z,6.50
2023-05-26T09:07:32.852Z,6.97
2023-05-26T09:10:23.302Z,7.40
2023-05-26T09:12:53.154Z,7.88
2023-05-26T09:15:23.037Z,7.93
2023-05-26T09:17:52.106Z,6.20
2023-05-26T09:20:20.578Z,6.72
2023-05-26T09:22:51.065Z,6.72
2023-05-26T09:25:19.563Z,6.50
2023-05-26T09:27:49.803Z,5.82
2023-05-26T09:30:18.815Z,5.65
2023-05-26T09:32:47.959Z,5.13
2023-05-26T09:35:18.070Z,5.53
2023-05-26T09:40:17.980Z,3.72
2023-05-26T09:43:13.875Z,4.45
2023-05-26T09:45:59.450Z,3.80
2023-05-26T09:48:38.510Z,4.15
2023-05-26T09:51:07.533Z,3.85
2023-05-26T09:53:37.023Z,4.63
2023-05-26T09:58:40.255Z,4.75
2023-05-26T10:01:09.511Z,4.60
2023-05-26T10:03:38.164Z,4.95
2023-05-26T10:06:07.738Z,5.15
2023-05-26T10:08:37.272Z,5.68
2023-05-26T10:11:07.096Z,4.82
2023-05-26T10:13:36.686Z,4.55
2023-05-26T10:16:05.910Z,7.55
2023-05-26T10:18:34.892Z,4.75
2023-05-26T10:21:08.202Z,6.15
2023-05-26T10:23:39.495Z,5.57
2023-05-26T10:26:13.291Z,4.50
2023-05-26T10:28:46.458Z,5.45
2023-05-26T10:31:30.046Z,5.07
2023-05-26T10:33:59.829Z,4.78
2023-05-26T10:36:30.090Z,5.68
2023-05-26T10:38:59.150Z,5.13
2023-05-26T10:41:33.553Z,4.22
2023-05-26T10:44:03.005Z,5.30
2023-05-26T10:46:39.674Z,5.10
2023-05-26T10:49:22.279Z,5.00
2023-05-26T10:51:52.173Z,4.70
2023-05-26T10:54:23.895Z,4.93
2023-05-26T10:56:54.858Z,4.93
2023-05-26T10:59:25.573Z,4.32
2023-05-26T11:01:54.665Z,4.60
2023-05-26T11:04:23.759Z,5.03
2023-05-26T11:06:53.657Z,4.38
2023-05-26T11:09:25.587Z,4.93
2023-05-26T11:11:58.534Z,4.72
2023-05-26T11:14:28.274Z,4.18
2023-05-26T11:17:01.133Z,4.50
2023-05-26T11:19:31.683Z,4.40
2023-05-26T11:22:01.040Z,4.22
2023-05-26T11:24:29.803Z,4.20
2023-05-26T11:27:01.144Z,3.92
2023-05-26T11:29:30.395Z,3.58
2023-05-26T11:31:59.213Z,3.70
2023-05-26T11:34:28.222Z,3.67
2023-05-26T11:36:57.099Z,3.88
2023-05-26T11:39:26.151Z,3.50
2023-05-26T11:41:54.427Z,4.10
2023-05-26T11:44:30.711Z,4.30
2023-05-26T11:46:59.214Z,4.28
2023-05-26T11:49:27.728Z,3.83
2023-05-26T11:51:57.853Z,4.32
2023-05-26T11:54:26.900Z,4.13
2023-05-26T11:56:55.486Z,4.60
2023-05-26T11:59:25.962Z,3.55
2023-05-26T12:01:54.354Z,4.15
2023-05-26T12:04:28.595Z,4.00
2023-05-26T12:06:57.075Z,4.18
2023-05-26T12:09:26.309Z,3.83
2023-05-26T12:11:55.403Z,3.55
2023-05-26T12:14:25.983Z,4.72
2023-05-26T12:16:56.671Z,3.92
2023-05-26T12:22:00.464Z,3.83
2023-05-26T12:24:34.769Z,3.60
2023-05-26T12:27:07.849Z,3.53
2023-05-26T12:29:39.254Z,3.67
2023-05-26T12:32:08.646Z,3.58
2023-05-26T12:34:39.784Z,3.70
2023-05-26T12:37:08.877Z,3.95
2023-05-26T12:39:37.517Z,3.60
2023-05-26T12:42:07.125Z,4.78
2023-05-26T12:44:35.865Z,4.35
2023-05-26T12:47:05.847Z,4.25
2023-05-26T12:49:34.642Z,3.55
2023-05-26T12:52:03.021Z,3.45
2023-05-26T12:54:31.520Z,3.40
2023-05-26T12:57:00.061Z,4.22
2023-05-26T12:59:28.726Z,3.97
2023-05-26T13:01:58.119Z,3.75
2023-05-26T13:04:28.334Z,3.78
2023-05-26T13:06:58.491Z,3.88
2023-05-26T13:09:27.525Z,3.83
2023-05-26T13:11:55.781Z,3.78
2023-05-26T13:14:24.296Z,3.35
2023-05-26T13:16:52.748Z,3.50
2023-05-26T13:19:22.368Z,3.72
2023-05-26T13:21:52.365Z,3.65
2023-05-26T13:24:20.956Z,4.00
2023-05-26T13:26:49.155Z,3.60
2023-05-26T13:29:18.286Z,3.75
2023-05-26T13:31:46.605Z,3.60
2023-05-26T13:34:15.698Z,3.60
2023-05-26T13:36:46.752Z,3.85
2023-05-26T13:39:16.687Z,3.40
2023-05-26T13:41:44.961Z,3.85
2023-05-26T13:44:15.827Z,3.28
2023-05-26T13:46:44.213Z,3.53
2023-05-26T13:49:13.247Z,3.60
2023-05-26T13:51:41.673Z,3.88
2023-05-26T13:54:10.514Z,3.60
2023-05-26T13:56:40.321Z,3.63
2023-05-26T13:59:08.972Z,3.40
2023-05-26T14:01:38.500Z,3.78
2023-05-26T14:04:08.547Z,3.65
2023-05-26T14:06:38.420Z,3.80
2023-05-26T14:09:08.197Z,3.95
2023-05-26T14:11:36.926Z,3.42
2023-05-26T14:14:06.799Z,3.75
2023-05-26T14:16:35.143Z,3.83
2023-05-26T14:19:04.598Z,3.72
2023-05-26T14:21:56.361Z,3.30
2023-05-26T14:24:25.009Z,3.70
2023-05-26T14:26:55.192Z,3.78
2023-05-26T14:29:25.374Z,3.72
2023-05-26T14:31:54.115Z,3.90
2023-05-26T14:34:22.845Z,3.53
2023-05-26T14:36:51.681Z,3.70
2023-05-26T14:39:20.585Z,4.07
2023-05-26T14:41:48.968Z,3.58
2023-05-26T14:44:17.956Z,3.85
2023-05-26T14:46:48.025Z,3.53
2023-05-26T14:49:16.831Z,3.53
2023-05-26T14:51:46.739Z,3.90
2023-05-26T14:54:15.546Z,3.93
2023-05-26T14:56:43.902Z,3.70
2023-05-26T14:59:12.885Z,3.95
2023-05-26T15:01:41.312Z,3.42
2023-05-26T15:04:15.526Z,3.55
2023-05-26T15:06:44.318Z,3.90
2023-05-26T15:09:14.296Z,3.97
2023-05-26T15:11:44.198Z,3.58
2023-05-26T15:14:12.873Z,3.23
2023-05-26T15:16:41.158Z,2.83
2023-05-26T15:19:11.444Z,3.72
2023-05-26T15:21:40.181Z,3.70
2023-05-26T15:24:09.121Z,3.58
2023-05-26T15:26:37.718Z,3.75
2023-05-26T15:29:06.511Z,3.75
2023-05-26T15:31:35.011Z,3.35
2023-05-26T15:34:03.785Z,3.25
2023-05-26T15:36:33.618Z,3.38
2023-05-26T15:39:03.208Z,3.20
2023-05-26T15:41:33.337Z,3.55
2023-05-26T15:44:04.055Z,3.30
2023-05-26T15:46:32.662Z,3.10
2023-05-26T15:49:01.392Z,3.00
2023-05-26T15:51:30.147Z,2.72
2023-05-26T15:54:00.366Z,3.40
2023-05-26T15:56:29.075Z,2.92
2023-05-26T15:58:57.663Z,2.42
2023-05-26T16:01:26.131Z,2.88
2023-05-26T16:03:55.032Z,2.40
2023-05-26T16:06:23.814Z,2.70
2023-05-26T16:08:52.770Z,2.80
2023-05-26T16:11:22.731Z,2.40
2023-05-26T16:13:52.007Z,2.53
2023-05-26T16:16:20.840Z,2.60
2023-05-26T16:18:50.164Z,2.28
2023-05-26T16:21:18.941Z,2.53
2023-05-26T16:23:48.446Z,2.33
2023-05-26T16:26:17.145Z,2.35
2023-05-26T16:28:47.117Z,2.45
2023-05-26T16:31:15.579Z,2.53
2023-05-26T16:33:44.837Z,2.30
2023-05-26T16:36:13.104Z,2.22
2023-05-26T16:38:46.070Z,2.22
2023-05-26T16:41:14.582Z,2.63
2023-05-26T16:43:48.954Z,2.15
2023-05-26T16:46:19.069Z,2.40
2023-05-26T16:48:47.558Z,2.25
2023-05-26T16:51:15.907Z,2.13
2023-05-26T16:53:44.565Z,2.35
2023-05-26T16:56:12.892Z,2.53
2023-05-26T16:58:41.507Z,2.38
2023-05-26T17:01:10.035Z,2.33
2023-05-26T17:03:40.328Z,2.35
2023-05-26T17:06:08.889Z,2.20
2023-05-26T17:08:37.754Z,2.53
2023-05-26T17:11:06.048Z,2.58
2023-05-26T17:13:34.827Z,2.42
2023-05-26T17:16:03.721Z,2.30
2023-05-26T17:18:32.634Z,2.53
2023-05-26T17:21:02.775Z,2.72
2023-05-26T17:23:31.741Z,2.38
2023-05-26T17:26:00.124Z,2.40
2023-05-26T17:28:28.780Z,2.35
2023-05-26T17:30:57.523Z,2.67
2023-05-26T17:33:26.279Z,2.40
2023-05-26T17:35:54.643Z,2.67
2023-05-26T17:38:24.910Z,2.53
2023-05-26T17:40:53.389Z,2.65
2023-05-26T17:43:22.403Z,2.55
2023-05-26T17:45:50.695Z,2.40
2023-05-26T17:48:19.332Z,2.78
2023-05-26T17:50:47.799Z,2.05
2023-05-26T17:53:16.369Z,2.65
2023-05-26T17:55:46.297Z,2.20
2023-05-26T17:58:15.006Z,2.20
2023-05-26T18:00:45.055Z,2.80
2023-05-26T18:03:14.168Z,2.58
2023-05-26T18:05:42.670Z,2.80
2023-05-26T18:08:11.391Z,2.70
2023-05-26T18:10:39.799Z,2.63
2023-05-26T18:13:09.662Z,2.70
2023-05-26T18:15:38.372Z,2.70
2023-05-26T18:18:08.092Z,2.83
2023-05-26T18:20:36.999Z,3.00
2023-05-26T18:23:05.815Z,2.60
2023-05-26T18:25:36.361Z,3.10
2023-05-26T18:28:05.806Z,3.15
2023-05-26T18:30:35.585Z,3.33
2023-05-26T18:33:04.794Z,2.85
2023-05-26T18:35:32.982Z,2.80
2023-05-26T18:38:02.016Z,3.03
2023-05-26T18:40:30.485Z,3.20
2023-05-26T18:42:59.494Z,3.53
2023-05-26T18:45:27.862Z,3.58
2023-05-26T18:47:57.982Z,3.30
2023-05-26T18:50:27.201Z,3.58
2023-05-26T18:52:55.813Z,3.38
2023-05-26T18:55:24.064Z,3.20
2023-05-26T18:57:52.572Z,3.38
2023-05-26T19:00:21.666Z,2.92
2023-05-26T19:02:50.835Z,3.42
2023-05-26T19:05:21.015Z,3.30
2023-05-26T19:07:49.775Z,2.67
2023-05-26T19:10:18.114Z,2.63
2023-05-26T19:12:46.840Z,3.33
2023-05-26T19:15:15.740Z,3.85
2023-05-26T19:17:44.247Z,3.30
2023-05-26T19:20:14.215Z,3.30
2023-05-26T19:22:44.425Z,3.60
2023-05-26T19:25:12.924Z,3.58
2023-05-26T19:27:41.779Z,3.28
2023-05-26T19:30:11.370Z,3.90
2023-05-26T19:32:42.556Z,3.58
2023-05-26T19:35:11.926Z,3.70
2023-05-26T19:37:40.602Z,3.60
2023-05-26T19:40:11.888Z,3.70
2023-05-26T19:42:40.625Z,4.07
2023-05-26T19:45:10.917Z,3.80
2023-05-26T19:47:39.454Z,4.45
2023-05-26T19:50:08.701Z,3.35
2023-05-26T19:52:37.332Z,3.08
2023-05-26T19:55:06.274Z,3.50
2023-05-26T19:57:36.475Z,5.47
2023-05-26T20:00:06.662Z,3.80
2023-05-26T20:02:35.754Z,4.13
2023-05-26T20:05:06.312Z,4.68
2023-05-26T20:07:36.606Z,4.35
2023-05-26T20:10:05.745Z,4.60
2023-05-26T20:12:34.501Z,4.50
2023-05-26T20:15:05.157Z,3.70
2023-05-26T20:17:33.752Z,3.97
2023-05-26T20:20:13.227Z,4.30
2023-05-26T20:22:42.455Z,4.13
2023-05-26T20:25:11.223Z,4.00
2023-05-26T20:27:40.109Z,3.70
2023-05-26T20:30:11.737Z,3.85
2023-05-26T20:32:40.465Z,4.13
2023-05-26T20:35:09.872Z,3.72
2023-05-26T20:37:38.614Z,3.35
2023-05-26T20:40:10.418Z,3.83
2023-05-26T20:42:38.910Z,4.18
2023-05-26T20:45:09.810Z,4.05
2023-05-26T20:47:38.592Z,4.25
2023-05-26T20:50:08.908Z,4.15
2023-05-26T20:52:38.019Z,4.00
2023-05-26T20:55:07.638Z,4.22
2023-05-26T20:57:36.202Z,3.50
2023-05-26T21:00:06.269Z,4.22
2023-05-26T21:02:36.639Z,4.32
2023-05-26T21:05:05.755Z,4.05
2023-05-26T21:07:34.221Z,4.47
2023-05-26T21:10:02.472Z,4.03
2023-05-26T21:12:31.052Z,4.15
2023-05-26T21:15:00.563Z,3.70
2023-05-26T21:17:29.638Z,4.18
2023-05-26T21:19:59.311Z,3.90
2023-05-26T21:22:27.904Z,3.50
2023-05-26T21:24:56.159Z,3.55
2023-05-26T21:27:24.711Z,4.07
2023-05-26T21:29:53.424Z,3.70
2023-05-26T21:32:22.916Z,3.83
2023-05-26T21:34:51.099Z,3.90
2023-05-26T21:37:21.137Z,4.30
2023-05-26T21:39:49.398Z,4.45
2023-05-26T21:42:18.733Z,3.80
2023-05-26T21:44:48.100Z,4.20
2023-05-26T21:47:17.712Z,4.28
2023-05-26T21:49:46.081Z,4.07
2023-05-26T21:52:14.646Z,4.28
2023-05-26T21:54:45.110Z,4.22
2023-05-26T21:57:13.663Z,4.13
2023-05-26T21:59:41.977Z,4.65
2023-05-26T22:02:10.713Z,4.35
2023-05-26T22:04:39.028Z,4.55
2023-05-26T22:07:07.993Z,4.45
2023-05-26T22:09:36.287Z,4.70
2023-05-26T22:12:07.412Z,3.90
2023-05-26T22:14:35.808Z,4.82
2023-05-26T22:17:04.397Z,4.35
2023-05-26T22:19:32.887Z,4.10
2023-05-26T22:22:01.595Z,4.55
2023-05-26T22:24:29.832Z,5.05
2023-05-26T22:26:58.583Z,4.65
2023-05-26T22:29:28.173Z,4.70
2023-05-26T22:31:56.716Z,5.00
2023-05-26T22:34:24.846Z,4.82
2023-05-26T22:36:53.538Z,5.10
2023-05-26T22:39:21.920Z,4.70
2023-05-26T22:41:51.291Z,5.65
2023-05-26T22:44:19.611Z,4.47
2023-05-26T22:46:49.612Z,4.68
2023-05-26T22:49:18.009Z,5.15
2023-05-26T22:51:46.708Z,5.65
2023-05-26T22:54:14.965Z,4.55
2023-05-26T22:56:45.017Z,4.57
2023-05-26T22:59:13.501Z,4.70
2023-05-26T23:01:42.071Z,4.70
2023-05-26T23:04:12.154Z,4.32
2023-05-26T23:06:40.684Z,5.28
2023-05-26T23:09:09.008Z,4.60
2023-05-26T23:11:37.514Z,4.70
2023-05-26T23:14:05.877Z,5.07
2023-05-26T23:16:34.596Z,4.80
2023-05-26T23:19:02.897Z,4.57
2023-05-26T23:21:33.121Z,4.93
2023-05-26T23:24:01.516Z,4.53
2023-05-26T23:26:30.053Z,4.53
2023-05-26T23:28:58.387Z,4.63
2023-05-26T23:31:27.087Z,4.80
2023-05-26T23:33:55.794Z,4.65
2023-05-26T23:36:25.840Z,5.00
2023-05-26T23:38:55.367Z,5.05
2023-05-26T23:41:23.961Z,4.47
2023-05-26T23:43:52.234Z,4.00
2023-05-26T23:46:20.739Z,4.15
2023-05-26T23:48:49.445Z,4.93
2023-05-26T23:51:18.006Z,4.43
2023-05-26T23:53:46.437Z,4.43
2023-05-26T23:56:16.333Z,4.72
2023-05-26T23:58:44.535Z,4.47
